Time;durP1;ratioP1;P1;durP2;ratioP2;P2;SDS_P1;SDS_P2;PMS_P1;PMS_P2;Temp;Humidity;BMP_temperature;BMP_pressure;BME280_temperature;BME280_humidity;BME280_pressure;Samples;Min_cycle;Max_cycle;Signal;HPM_P1;HPM_P2
2021/06/06 00:00:13;;;;;;;10.52;8.13;;;;;;;13.32;100.00;97588.59;5017345;28;20485;-83
2021/06/06 00:02:38;;;;;;;9.60;7.38;;;;;;;13.29;100.00;97589.66;5035757;28;20090;-84
2021/06/06 00:05:05;;;;;;;11.23;7.28;;;;;;;13.08;100.00;97564.34;5037288;28;20032;-83
2021/06/06 00:07:30;;;;;;;9.75;7.80;;;;;;;12.93;100.00;97557.34;5035602;28;20112;-84
2021/06/06 00:09:56;;;;;;;11.77;8.38;;;;;;;13.02;100.00;97578.19;5017076;28;20115;-84
2021/06/06 00:12:21;;;;;;;12.35;8.68;;;;;;;13.09;100.00;97581.31;5017133;28;20036;-84
2021/06/06 00:14:47;;;;;;;13.43;8.50;;;;;;;12.72;100.00;97521.31;5033416;28;20029;-84
2021/06/06 00:17:12;;;;;;;14.70;8.57;;;;;;;12.77;100.00;97527.19;5033495;28;20449;-84
2021/06/06 00:19:38;;;;;;;13.48;8.88;;;;;;;12.91;100.00;97567.34;5034987;28;20036;-83
2021/06/06 00:22:06;;;;;;;13.07;9.32;;;;;;;13.05;100.00;97580.66;5036741;28;20082;-84
2021/06/06 00:24:33;;;;;;;10.00;8.40;;;;;;;13.05;100.00;97586.88;5019564;28;20037;-83
2021/06/06 00:26:59;;;;;;;14.30;9.40;;;;;;;12.94;100.00;97597.53;5021740;28;20117;-83
2021/06/06 00:29:25;;;;;;;16.23;9.35;;;;;;;12.73;100.00;97557.91;5053409;28;20499;-82
2021/06/06 00:31:51;;;;;;;12.20;8.32;;;;;;;12.94;100.00;97588.63;5033134;28;20117;-83
2021/06/06 00:34:17;;;;;;;9.43;7.78;;;;;;;12.64;100.00;97539.78;5023757;28;20024;-85
2021/06/06 00:36:42;;;;;;;9.65;7.93;;;;;;;12.75;100.00;97577.44;5052819;28;20522;-84
2021/06/06 00:39:08;;;;;;;12.15;7.85;;;;;;;12.75;100.00;97578.31;5031084;28;20528;-82
2021/06/06 00:41:36;;;;;;;10.00;8.10;;;;;;;12.71;100.00;97574.13;5033379;28;20090;-82
2021/06/06 00:44:02;;;;;;;12.63;7.82;;;;;;;12.59;100.00;97544.59;5033716;28;20029;-82
2021/06/06 00:46:29;;;;;;;15.48;8.77;;;;;;;12.79;100.00;97584.34;5019085;28;20032;-82
2021/06/06 00:48:55;;;;;;;16.02;8.73;;;;;;;12.69;100.00;97576.06;5021127;28;20028;-82
2021/06/06 00:51:38;;;;;;;14.88;8.40;;;;;;;12.66;100.00;97567.34;5021184;28;20021;-82
2021/06/06 00:54:13;;;;;;;11.55;9.00;;;;;;;12.73;100.00;97572.22;5033832;28;20563;-82
2021/06/06 00:56:39;;;;;;;12.52;8.13;;;;;;;12.65;100.00;97565.63;5075057;28;20486;-82
2021/06/06 00:59:05;;;;;;;14.25;8.25;;;;;;;12.64;100.00;97566.63;5040652;28;20048;-83
2021/06/06 01:01:31;;;;;;;10.52;8.38;;;;;;;12.67;100.00;97566.41;5040310;28;20032;-82
2021/06/06 01:03:58;;;;;;;14.82;9.10;;;;;;;12.64;100.00;97563.94;5057239;28;20029;-83
2021/06/06 01:06:29;;;;;;;12.05;8.48;;;;;;;12.74;100.00;97573.03;5040397;28;20028;-81
2021/06/06 01:08:55;;;;;;;12.82;8.35;;;;;;;12.73;100.00;97569.53;5040166;28;20449;-82
2021/06/06 01:11:48;;;;;;;17.60;8.90;;;;;;;12.70;100.00;97575.09;5040338;28;20170;-82
2021/06/06 01:14:20;;;;;;;11.82;8.63;;;;;;;12.48;100.00;97545.38;5056669;28;20032;-82
2021/06/06 01:17:09;;;;;;;13.27;8.32;;;;;;;12.57;100.00;97562.63;5056516;28;20035;-82
2021/06/06 01:20:01;;;;;;;12.85;8.55;;;;;;;12.54;100.00;97562.84;5039570;28;20119;-81
2021/06/06 01:22:48;;;;;;;11.60;8.25;;;;;;;12.52;100.00;97566.50;5065387;28;20115;-82
2021/06/06 01:25:38;;;;;;;9.98;8.32;;;;;;;12.35;100.00;97545.34;5056591;28;20059;-82
2021/06/06 01:28:23;;;;;;;13.05;9.10;;;;;;;12.32;100.00;97552.75;5015594;28;20029;-82
2021/06/06 01:30:53;;;;;;;14.10;8.55;;;;;;;12.33;100.00;97568.75;5036652;28;20021;-82
2021/06/06 01:33:47;;;;;;;11.98;8.68;;;;;;;12.20;100.00;97543.72;5036788;28;20028;-82
2021/06/06 01:36:31;;;;;;;11.63;8.55;;;;;;;12.09;100.00;97513.25;5032376;28;20048;-82
2021/06/06 01:39:00;;;;;;;11.52;8.32;;;;;;;12.23;100.00;97548.88;5039049;28;20795;-82
2021/06/06 01:41:33;;;;;;;10.82;8.20;;;;;;;12.22;100.00;97551.66;5033162;28;20028;-82
2021/06/06 01:43:59;;;;;;;12.18;8.32;;;;;;;12.18;100.00;97534.91;5020418;28;20021;-82
2021/06/06 01:46:29;;;;;;;13.15;8.50;;;;;;;12.19;100.00;97530.41;5026537;28;20016;-83
2021/06/06 01:48:56;;;;;;;11.35;8.18;;;;;;;12.04;100.00;97523.41;5056106;28;20567;-82
2021/06/06 01:51:28;;;;;;;11.70;7.82;;;;;;;12.00;100.00;97520.06;5056514;28;20396;-81
2021/06/06 01:53:54;;;;;;;10.57;8.70;;;;;;;12.01;100.00;97519.13;5039113;28;20028;-82
2021/06/06 01:56:24;;;;;;;13.85;8.68;;;;;;;12.08;100.00;97520.44;5038792;28;20107;-82
2021/06/06 01:58:56;;;;;;;11.05;8.45;;;;;;;12.08;100.00;97532.97;5039095;28;20242;-82
2021/06/06 02:01:23;;;;;;;11.73;8.55;;;;;;;12.02;100.00;97530.72;5056275;28;20415;-82
2021/06/06 02:03:51;;;;;;;14.07;8.80;;;;;;;11.98;100.00;97531.88;5054701;28;20583;-82
2021/06/06 02:06:18;;;;;;;10.50;8.20;;;;;;;11.84;100.00;97514.91;5024761;28;20020;-82
2021/06/06 02:08:45;;;;;;;15.10;8.57;;;;;;;11.97;100.00;97525.66;5056051;28;20504;-82
2021/06/06 02:11:22;;;;;;;12.27;9.02;;;;;;;11.86;100.00;97515.66;5019932;28;20029;-82
2021/06/06 02:13:54;;;;;;;12.35;9.20;;;;;;;12.00;100.00;97532.66;5019996;28;20443;-82
2021/06/06 02:16:26;;;;;;;15.65;9.23;;;;;;;11.94;100.00;97531.22;5019168;28;20025;-82
2021/06/06 02:18:52;;;;;;;15.93;8.90;;;;;;;11.87;100.00;97525.41;5020080;28;20107;-81
2021/06/06 02:21:18;;;;;;;15.25;9.27;;;;;;;11.60;100.00;97467.41;5031091;28;20028;-82
2021/06/06 02:23:46;;;;;;;13.40;8.45;;;;;;;11.95;100.00;97538.31;5055695;28;20523;-82
2021/06/06 02:26:33;;;;;;;12.68;8.60;;;;;;;11.66;100.00;97491.16;5035186;28;20021;-82
2021/06/06 02:29:18;;;;;;;13.80;9.18;;;;;;;11.77;100.00;97507.38;5053401;28;20063;-82
2021/06/06 02:31:52;;;;;;;12.38;9.25;;;;;;;11.90;100.00;97535.09;5035512;28;20051;-82
2021/06/06 02:34:42;;;;;;;15.32;8.93;;;;;;;11.85;100.00;97530.03;5053500;28;20049;-81
2021/06/06 02:37:29;;;;;;;13.05;8.77;;;;;;;11.65;100.00;97497.47;5018382;28;20470;-81
2021/06/06 02:39:58;;;;;;;13.55;9.15;;;;;;;11.83;100.00;97517.69;5035342;28;20024;-81
2021/06/06 02:42:33;;;;;;;12.20;9.57;;;;;;;11.74;100.00;97507.59;5018795;28;20029;-82
2021/06/06 02:45:08;;;;;;;12.10;8.93;;;;;;;11.86;100.00;97518.34;5018741;28;20036;-82
2021/06/06 02:47:35;;;;;;;13.07;8.48;;;;;;;11.88;100.00;97516.41;5018618;28;20072;-82
2021/06/06 02:50:06;;;;;;;23.08;9.32;;;;;;;11.91;100.00;97520.69;5028814;28;20028;-82
2021/06/06 02:52:39;;;;;;;15.98;9.35;;;;;;;11.52;100.00;97467.09;5038415;28;20033;-82
2021/06/06 02:55:08;;;;;;;15.65;10.65;;;;;;;11.67;100.00;97493.72;5054956;28;20487;-82
2021/06/06 02:57:35;;;;;;;13.75;9.38;;;;;;;11.50;100.00;97466.34;5055061;28;20036;-81
2021/06/06 03:00:12;;;;;;;13.80;9.05;;;;;;;11.80;100.00;97520.59;5054828;28;20028;-81
2021/06/06 03:02:41;;;;;;;17.23;9.95;;;;;;;11.82;100.00;97514.16;5073088;28;20024;-77
2021/06/06 03:05:09;;;;;;;18.48;9.80;;;;;;;11.83;100.00;97512.34;5029815;28;20492;-82
2021/06/06 03:07:46;;;;;;;18.05;9.80;;;;;;;11.81;100.00;97519.63;5037881;28;20020;-81
2021/06/06 03:10:13;;;;;;;18.80;9.68;;;;;;;11.81;100.00;97525.00;5037585;28;20028;-81
2021/06/06 03:12:39;;;;;;;19.20;10.98;;;;;;;11.66;100.00;97509.91;5039717;28;20059;-81
2021/06/06 03:15:07;;;;;;;19.38;10.02;;;;;;;11.59;100.00;97511.28;5017786;28;20025;-81
2021/06/06 03:17:35;;;;;;;15.25;9.80;;;;;;;11.68;100.00;97518.69;5034814;28;20035;-80
2021/06/06 03:20:10;;;;;;;17.73;9.90;;;;;;;11.56;100.00;97503.44;5019282;28;20032;-81
2021/06/06 03:22:38;;;;;;;16.73;10.05;;;;;;;11.65;100.00;97518.91;5054515;28;20440;-80
2021/06/06 03:25:09;;;;;;;17.88;10.38;;;;;;;11.67;100.00;97519.63;5037387;28;20040;-80
2021/06/06 03:27:41;;;;;;;16.90;10.43;;;;;;;11.54;100.00;97494.63;5054337;28;20028;-79
2021/06/06 03:30:29;;;;;;;17.17;9.32;;;;;;;11.71;100.00;97521.19;5054045;28;20028;-80
2021/06/06 03:32:56;;;;;;;18.55;9.30;;;;;;;11.64;100.00;97498.41;5071750;28;20480;-79
2021/06/06 03:35:22;;;;;;;15.68;9.80;;;;;;;11.78;100.00;97519.84;5025239;28;20029;-80
2021/06/06 03:37:48;;;;;;;21.05;9.85;;;;;;;11.89;100.00;97522.63;5051838;28;20757;-79
2021/06/06 03:40:14;;;;;;;19.20;9.15;;;;;;;11.95;100.00;97523.09;5054296;28;20028;-80
2021/06/06 03:42:40;;;;;;;14.95;9.07;;;;;;;11.81;100.00;97506.22;5071971;28;20020;-79
2021/06/06 03:45:07;;;;;;;15.85;9.20;;;;;;;11.90;100.00;97498.41;5035850;28;20533;-80
2021/06/06 03:47:32;;;;;;;14.25;9.43;;;;;;;11.93;100.00;97494.69;5033975;28;20073;-80
2021/06/06 03:49:58;;;;;;;16.15;9.98;;;;;;;11.98;100.00;97488.97;5033640;28;20029;-80
2021/06/06 03:52:23;;;;;;;17.77;9.23;;;;;;;12.14;100.00;97503.91;5033798;28;20111;-80
2021/06/06 03:54:51;;;;;;;18.92;9.35;;;;;;;12.27;100.00;97518.22;5033970;28;20029;-80
2021/06/06 03:57:17;;;;;;;18.60;10.85;;;;;;;12.36;100.00;97522.06;5051305;28;20404;-81
2021/06/06 03:59:42;;;;;;;12.93;9.32;;;;;;;12.35;100.00;97506.94;5033983;28;20035;-80
2021/06/06 04:02:08;;;;;;;17.65;9.50;;;;;;;12.33;100.00;97477.56;5052698;28;20100;-80
2021/06/06 04:04:33;;;;;;;13.20;8.43;;;;;;;12.54;100.00;97498.47;5053844;28;20028;-83
2021/06/06 04:06:59;;;;;;;19.10;9.20;;;;;;;12.76;100.00;97510.25;5037126;28;20021;-81
2021/06/06 04:09:24;;;;;;;12.80;8.82;;;;;;;12.74;100.00;97487.16;5054048;28;20027;-83
2021/06/06 04:11:50;;;;;;;19.38;9.55;;;;;;;12.78;100.00;97476.09;5030575;28;20528;-83
2021/06/06 04:14:15;;;;;;;14.10;9.75;;;;;;;12.69;100.00;97455.28;5034099;28;20025;-83
2021/06/06 04:16:41;;;;;;;16.63;8.40;;;;;;;13.10;100.00;97510.53;5018009;28;20041;-82
2021/06/06 04:19:07;;;;;;;16.98;9.43;;;;;;;13.15;100.00;97492.25;5026141;28;20032;-82
2021/06/06 04:21:34;;;;;;;17.80;9.43;;;;;;;13.32;100.00;97500.78;5032965;28;20522;-83
2021/06/06 04:24:00;;;;;;;15.30;9.38;;;;;;;13.28;100.00;97475.13;5041961;28;20021;-83
2021/06/06 04:26:25;;;;;;;18.98;10.13;;;;;;;13.27;100.00;97468.03;5053720;28;20081;-83
2021/06/06 04:28:51;;;;;;;15.95;10.02;;;;;;;13.71;100.00;97506.88;5037122;28;20025;-83
2021/06/06 04:31:17;;;;;;;15.27;8.90;;;;;;;13.74;100.00;97493.19;5026617;28;20021;-83
2021/06/06 04:33:43;;;;;;;16.13;9.30;;;;;;;13.90;100.00;97508.06;5033560;28;20424;-82
2021/06/06 04:36:09;;;;;;;20.80;9.25;;;;;;;13.99;100.00;97511.88;5040470;28;20504;-82
2021/06/06 04:38:35;;;;;;;14.25;9.25;;;;;;;14.05;100.00;97508.72;5034434;28;20044;-77
2021/06/06 04:41:05;;;;;;;15.27;8.50;;;;;;;14.09;100.00;97488.66;5050708;28;20035;-81
2021/06/06 04:43:31;;;;;;;15.00;9.10;;;;;;;14.20;100.00;97494.09;5050723;28;20503;-81
2021/06/06 04:45:57;;;;;;;15.93;9.15;;;;;;;14.16;100.00;97472.91;5050657;28;20035;-75
2021/06/06 04:48:29;;;;;;;17.85;9.30;;;;;;;15.24;96.21;97505.53;5039309;28;20036;-76
2021/06/06 04:50:56;;;;;;;15.93;9.73;;;;;;;17.31;83.04;97511.97;5048377;28;20484;-75
2021/06/06 04:53:22;;;;;;;16.40;8.00;;;;;;;19.14;74.79;97501.97;5013749;28;20045;-75
2021/06/06 04:55:49;;;;;;;24.17;8.18;;;;;;;20.15;68.84;97528.97;5048050;28;20074;-76
2021/06/06 04:58:17;;;;;;;10.35;7.10;;;;;;;21.83;61.54;97528.44;5047519;28;20085;-76
2021/06/06 05:00:43;;;;;;;15.25;7.07;;;;;;;23.71;53.71;97534.59;5033527;28;20028;-76
2021/06/06 05:03:10;;;;;;;12.63;7.32;;;;;;;25.12;49.95;97548.69;5068030;28;20039;-76
2021/06/06 05:05:36;;;;;;;9.60;7.38;;;;;;;26.23;46.14;97545.91;5050210;28;20051;-76
2021/06/06 05:08:03;;;;;;;10.27;7.05;;;;;;;27.28;42.27;97527.72;5061478;28;20045;-76
2021/06/06 05:10:31;;;;;;;13.05;7.22;;;;;;;27.71;42.48;97551.31;5029845;28;20515;-76
2021/06/06 05:12:57;;;;;;;10.98;6.88;;;;;;;29.00;39.40;97566.84;5030422;28;20155;-75
2021/06/06 05:15:23;;;;;;;12.70;7.03;;;;;;;29.85;37.37;97555.81;5047521;28;20107;-76
2021/06/06 05:17:51;;;;;;;8.05;6.32;;;;;;;30.48;35.52;97548.63;5030244;28;20399;-76
2021/06/06 05:20:21;;;;;;;15.98;7.07;;;;;;;30.91;35.81;97558.97;5029881;28;20020;-75
2021/06/06 05:22:47;;;;;;;9.95;6.82;;;;;;;31.43;33.98;97563.28;5030040;28;20039;-75
2021/06/06 05:25:13;;;;;;;13.73;6.85;;;;;;;32.01;33.12;97544.41;5047848;28;20423;-75
2021/06/06 05:27:39;;;;;;;10.02;6.22;;;;;;;32.32;32.37;97546.19;5049592;28;20025;-74
2021/06/06 05:30:06;;;;;;;8.85;5.90;;;;;;;32.43;32.60;97565.63;5049721;28;20024;-75
2021/06/06 05:32:32;;;;;;;8.43;5.93;;;;;;;32.99;32.55;97578.31;5051907;28;20040;-75
2021/06/06 05:34:57;;;;;;;9.00;6.03;;;;;;;33.17;30.91;97556.94;5053454;28;20550;-75
2021/06/06 05:37:23;;;;;;;7.85;5.78;;;;;;;33.87;30.41;97561.75;5071215;28;20135;-75
2021/06/06 05:39:48;;;;;;;6.05;5.47;;;;;;;33.27;31.31;97561.91;5036834;28;20032;-74
2021/06/06 05:42:14;;;;;;;11.88;5.80;;;;;;;33.77;29.75;97554.88;5071249;28;20063;-75
2021/06/06 05:44:40;;;;;;;6.90;4.93;;;;;;;33.94;30.29;97568.00;5051442;28;20033;-74
2021/06/06 05:47:06;;;;;;;6.45;5.70;;;;;;;33.44;30.01;97548.19;5039541;28;20501;-74
2021/06/06 05:49:32;;;;;;;7.15;5.15;;;;;;;33.98;30.17;97558.13;5070923;28;20503;-74
2021/06/06 05:51:57;;;;;;;7.18;5.10;;;;;;;34.33;28.72;97556.16;5053189;28;20051;-74
2021/06/06 05:54:24;;;;;;;13.68;5.32;;;;;;;34.00;29.15;97562.34;5071147;28;20085;-75
2021/06/06 05:56:49;;;;;;;9.70;4.85;;;;;;;33.69;29.92;97554.38;5052963;28;20036;-75
2021/06/06 05:59:15;;;;;;;5.90;4.43;;;;;;;32.72;30.81;97564.84;5052735;28;20032;-75
2021/06/06 06:01:41;;;;;;;16.30;5.50;;;;;;;33.79;30.83;97568.50;5052811;28;20569;-75
2021/06/06 06:04:07;;;;;;;8.43;4.72;;;;;;;34.65;28.39;97545.44;5036180;28;20502;-75
2021/06/06 06:06:32;;;;;;;6.50;4.93;;;;;;;35.16;28.20;97534.19;5035122;28;20036;-75
2021/06/06 06:08:58;;;;;;;5.70;4.68;;;;;;;35.15;27.68;97542.81;5037241;28;20035;-75
2021/06/06 06:11:24;;;;;;;9.00;5.13;;;;;;;35.63;26.51;97534.75;5052590;28;20381;-75
2021/06/06 06:13:51;;;;;;;7.75;4.85;;;;;;;35.20;27.47;97546.53;5070350;28;20079;-75
2021/06/06 06:16:19;;;;;;;7.10;4.93;;;;;;;35.25;27.32;97548.56;5070585;28;20032;-74
2021/06/06 06:18:45;;;;;;;8.20;5.13;;;;;;;35.34;27.15;97552.63;5052522;28;20472;-74
2021/06/06 06:21:13;;;;;;;13.23;5.15;;;;;;;35.67;26.97;97549.84;5070406;28;20016;-74
2021/06/06 06:23:39;;;;;;;28.02;20.70;;;;;;;36.16;26.92;97536.13;5033949;28;20188;-75
2021/06/06 06:26:06;;;;;;;11.93;6.72;;;;;;;35.99;26.69;97543.66;5032560;28;20025;-74
2021/06/06 06:28:33;;;;;;;11.00;4.72;;;;;;;35.89;26.20;97541.56;5032289;28;20029;-75
2021/06/06 06:30:59;;;;;;;6.30;4.20;;;;;;;35.69;26.11;97530.09;5050137;28;20459;-74
2021/06/06 06:33:25;;;;;;;9.70;5.18;;;;;;;35.95;26.23;97548.03;5032418;28;20025;-74
2021/06/06 06:35:50;;;;;;;30.27;20.42;;;;;;;35.53;26.41;97548.50;5056617;28;20071;-75
2021/06/06 06:38:16;;;;;;;12.95;5.90;;;;;;;36.11;26.89;97552.78;5050451;28;20041;-75
2021/06/06 06:40:43;;;;;;;49.60;7.57;;;;;;;36.93;25.44;97557.19;5032571;28;20029;-74
2021/06/06 06:43:09;;;;;;;10.00;5.63;;;;;;;37.23;25.66;97550.25;5031162;28;20040;-74
2021/06/06 06:45:40;;;;;;;13.93;5.30;;;;;;;37.74;24.90;97534.81;5032042;28;20029;-74
2021/06/06 06:48:12;;;;;;;21.07;6.00;;;;;;;38.11;24.33;97546.81;5031800;28;20021;-75
2021/06/06 06:50:39;;;;;;;12.40;4.97;;;;;;;37.25;25.40;97548.91;5032171;28;20082;-77
2021/06/06 06:53:05;;;;;;;19.55;15.73;;;;;;;37.87;24.49;97542.72;5015245;28;20032;-75
2021/06/06 06:55:31;;;;;;;21.02;5.97;;;;;;;37.84;24.72;97541.28;5031838;28;20549;-74
2021/06/06 06:57:57;;;;;;;17.65;8.25;;;;;;;37.83;24.96;97541.56;5031737;28;20094;-74
2021/06/06 07:00:34;;;;;;;8.88;6.47;;;;;;;38.18;24.37;97546.59;5049625;28;20028;-75
2021/06/06 07:03:00;;;;;;;16.77;8.18;;;;;;;37.93;24.48;97534.13;5031729;28;20032;-75
2021/06/06 07:05:26;;;;;;;27.13;8.27;;;;;;;38.34;24.12;97524.00;5031798;28;20082;-74
2021/06/06 07:07:52;;;;;;;12.77;8.30;;;;;;;38.80;23.90;97527.88;5031480;28;20033;-75
2021/06/06 07:10:22;;;;;;;19.83;7.82;;;;;;;39.49;23.18;97519.88;5015017;28;20554;-74
2021/06/06 07:12:47;;;;;;;22.80;8.48;;;;;;;39.99;22.63;97530.22;5031656;28;20450;-74
2021/06/06 07:15:14;;;;;;;12.65;7.43;;;;;;;40.07;23.02;97531.59;5051252;28;20036;-75
2021/06/06 07:17:41;;;;;;;22.73;8.55;;;;;;;40.36;22.18;97531.84;5051364;28;20068;-74
2021/06/06 07:20:09;;;;;;;20.83;7.80;;;;;;;39.43;23.14;97528.56;5051254;28;20515;-75
2021/06/06 07:22:35;;;;;;;14.82;7.88;;;;;;;39.33;23.80;97532.19;5050965;28;20032;-76
2021/06/06 07:25:03;;;;;;;29.88;7.18;;;;;;;39.56;23.88;97519.59;5069031;28;20024;-76
2021/06/06 07:27:30;;;;;;;14.18;7.05;;;;;;;38.96;24.00;97520.34;5034740;28;20033;-75
2021/06/06 07:29:55;;;;;;;15.70;6.80;;;;;;;39.43;23.51;97525.75;5051147;28;20404;-76
2021/06/06 07:32:22;;;;;;;14.32;6.25;;;;;;;39.26;23.57;97533.56;5051266;28;20028;-75
2021/06/06 07:34:47;;;;;;;62.70;8.32;;;;;;;39.93;22.66;97530.53;5034246;28;20028;-76
2021/06/06 07:37:14;;;;;;;22.17;6.30;;;;;;;40.04;22.34;97527.41;5050377;28;20043;-74
2021/06/06 07:39:40;;;;;;;13.35;6.72;;;;;;;40.53;22.55;97526.75;5051104;28;20089;-74
2021/06/06 07:42:08;;;;;;;10.82;5.28;;;;;;;40.77;21.56;97508.09;5050830;28;20056;-74
2021/06/06 07:44:35;;;;;;;6.97;5.10;;;;;;;41.02;21.60;97513.59;5051137;28;20089;-74
2021/06/06 07:47:02;;;;;;;9.95;5.03;;;;;;;40.50;22.27;97513.25;5050931;28;20032;-74
2021/06/06 07:49:28;;;;;;;11.90;5.45;;;;;;;40.54;22.66;97514.41;5034453;28;20028;-74
2021/06/06 07:51:53;;;;;;;15.85;6.15;;;;;;;40.99;22.27;97521.75;5050854;28;20380;-74
2021/06/06 07:54:19;;;;;;;10.75;5.05;;;;;;;41.92;21.23;97518.81;5055776;28;20040;-74
2021/06/06 07:56:44;;;;;;;31.73;6.35;;;;;;;42.44;20.90;97515.16;5030879;28;20040;-74
2021/06/06 07:59:11;;;;;;;28.73;5.57;;;;;;;42.81;20.47;97526.50;5048344;28;20039;-75
2021/06/06 08:01:37;;;;;;;12.45;5.75;;;;;;;42.06;21.33;97514.97;5031105;28;20048;-75
2021/06/06 08:04:03;;;;;;;12.18;9.05;;;;;;;41.82;21.78;97524.50;5030802;28;20029;-75
2021/06/06 08:06:29;;;;;;;12.40;4.75;;;;;;;41.68;21.97;97517.88;5061886;28;20066;-75
2021/06/06 08:08:55;;;;;;;11.73;4.90;;;;;;;41.32;21.98;97525.72;5050624;28;20032;-75
2021/06/06 08:11:20;;;;;;;36.03;6.15;;;;;;;41.21;22.47;97515.72;5033740;28;20051;-75
2021/06/06 08:13:46;;;;;;;8.93;4.32;;;;;;;41.46;21.13;97521.16;5050474;28;20147;-75
2021/06/06 08:16:12;;;;;;;10.35;5.30;;;;;;;41.79;20.84;97520.34;5068454;28;20039;-74
2021/06/06 08:18:43;;;;;;;7.30;4.38;;;;;;;42.19;20.58;97523.88;5050461;28;20029;-74
2021/06/06 08:21:41;;;;;;;8.32;3.95;;;;;;;41.81;18.96;97518.06;5033620;28;20036;-74
2021/06/06 08:24:08;;;;;;;6.40;4.00;;;;;;;42.66;18.28;97501.38;5052121;28;20040;-75
2021/06/06 08:26:34;;;;;;;6.53;3.85;;;;;;;43.11;17.89;97497.09;5050347;28;20037;-75
2021/06/06 08:28:59;;;;;;;8.40;4.47;;;;;;;42.96;17.57;97494.47;5033699;28;20418;-74
2021/06/06 08:31:33;;;;;;;8.68;3.20;;;;;;;42.05;16.73;97478.72;5050292;28;20029;-75
2021/06/06 08:33:58;;;;;;;6.03;3.80;;;;;;;42.35;17.19;97489.66;5041919;28;20039;-75
2021/06/06 08:36:27;;;;;;;9.93;3.70;;;;;;;41.84;17.48;97480.91;5039918;28;20033;-74
2021/06/06 08:38:53;;;;;;;8.40;5.60;;;;;;;41.13;17.96;97489.91;5031945;28;20400;-75
2021/06/06 08:41:24;;;;;;;8.52;4.32;;;;;;;40.51;17.10;97482.16;5032977;28;20403;-75
2021/06/06 08:44:03;;;;;;;9.80;3.83;;;;;;;41.28;18.14;97479.72;5016506;28;20048;-75
2021/06/06 08:46:34;;;;;;;75.70;7.93;;;;;;;41.20;18.82;97466.28;5033088;28;20041;-75
2021/06/06 08:49:00;;;;;;;4.07;3.30;;;;;;;42.05;16.89;97465.50;5033393;28;20021;-74
2021/06/06 08:51:37;;;;;;;12.48;5.03;;;;;;;42.08;17.61;97484.59;5033157;28;20037;-74
2021/06/06 08:54:32;;;;;;;9.32;5.38;;;;;;;42.91;17.29;97486.94;5033380;28;20028;-74
2021/06/06 08:57:05;;;;;;;10.07;4.53;;;;;;;42.50;17.42;97477.34;5033477;28;20033;-74
2021/06/06 08:59:33;;;;;;;9.43;4.03;;;;;;;43.04;16.83;97479.75;5032880;28;20027;-73
2021/06/06 09:02:08;;;;;;;7.10;3.22;;;;;;;43.37;16.00;97475.84;5050873;28;20552;-74
2021/06/06 09:04:35;;;;;;;5.07;3.22;;;;;;;43.44;15.96;97470.63;5050585;28;20499;-74
2021/06/06 09:07:01;;;;;;;10.63;2.97;;;;;;;41.82;16.88;97463.50;5034160;28;20098;-74
2021/06/06 09:09:29;;;;;;;4.07;3.10;;;;;;;41.59;18.23;97469.91;5020022;28;20039;-75
2021/06/06 09:12:10;;;;;;;4.25;3.65;;;;;;;42.24;18.01;97470.38;5036946;28;20059;-75
2021/06/06 09:14:36;;;;;;;9.85;3.80;;;;;;;40.29;18.30;97466.78;5036627;28;20396;-75
2021/06/06 09:17:09;;;;;;;83.50;6.03;;;;;;;41.74;17.99;97474.53;5036453;28;20057;-76
2021/06/06 09:19:40;;;;;;;6.55;4.22;;;;;;;42.58;17.95;97471.91;5036697;28;20117;-74
2021/06/06 09:22:06;;;;;;;3.85;3.20;;;;;;;41.83;17.50;97453.94;5054507;28;20040;-75
2021/06/06 09:24:38;;;;;;;5.40;3.75;;;;;;;41.87;17.99;97460.63;5036177;28;20025;-75
2021/06/06 09:27:10;;;;;;;9.00;3.15;;;;;;;41.67;17.15;97449.59;5045135;28;20033;-75
2021/06/06 09:29:35;;;;;;;5.65;3.28;;;;;;;40.76;18.03;97455.91;5053870;28;20477;-75
2021/06/06 09:32:11;;;;;;;7.60;3.53;;;;;;;41.52;18.11;97442.16;5054151;28;20024;-74
2021/06/06 09:34:37;;;;;;;9.00;3.83;;;;;;;42.28;17.95;97460.19;5036151;28;20025;-75
2021/06/06 09:37:14;;;;;;;5.75;3.28;;;;;;;43.18;17.34;97466.56;5053887;28;20118;-75
2021/06/06 09:39:45;;;;;;;4.65;3.38;;;;;;;43.16;16.23;97441.50;5036081;28;20028;-75
2021/06/06 09:42:44;;;;;;;3.88;3.30;;;;;;;41.56;18.27;97453.63;5036050;28;20056;-76
2021/06/06 09:45:10;;;;;;;4.90;4.40;;;;;;;42.05;18.72;97450.59;5035903;28;20098;-75
2021/06/06 09:47:36;;;;;;;5.70;3.58;;;;;;;42.15;18.54;97453.28;5053626;28;20037;-75
2021/06/06 09:50:22;;;;;;;4.72;3.83;;;;;;;40.92;19.20;97460.28;5036067;28;20017;-76
2021/06/06 09:52:47;;;;;;;7.22;3.80;;;;;;;41.47;19.37;97447.81;5035521;28;20036;-74
2021/06/06 09:55:29;;;;;;;9.82;3.35;;;;;;;41.95;18.04;97445.09;5053598;28;20013;-73
2021/06/06 09:58:15;;;;;;;6.03;3.67;;;;;;;42.54;18.43;97450.28;5036079;28;20546;-73
2021/06/06 10:00:44;;;;;;;4.18;3.00;;;;;;;42.75;16.89;97442.41;5035237;28;20033;-74
2021/06/06 10:03:36;;;;;;;7.30;3.45;;;;;;;43.75;16.58;97456.84;5035694;28;20025;-74
2021/06/06 10:06:25;;;;;;;9.77;3.47;;;;;;;44.48;16.59;97454.00;5067473;28;20021;-74
2021/06/06 10:09:17;;;;;;;13.90;3.72;;;;;;;44.66;16.79;97461.53;5073419;28;20127;-73
2021/06/06 10:12:00;;;;;;;8.95;3.40;;;;;;;45.18;15.72;97456.38;5069207;28;20100;-73
2021/06/06 10:14:42;;;;;;;7.53;3.25;;;;;;;45.41;15.73;97445.97;5046764;28;20029;-74
2021/06/06 10:17:13;;;;;;;5.30;4.43;;;;;;;44.17;15.99;97434.06;5035277;28;20547;-74
2021/06/06 10:19:47;;;;;;;5.95;4.20;;;;;;;43.74;16.93;97443.91;5035214;28;20040;-74
2021/06/06 10:22:20;;;;;;;6.75;4.50;;;;;;;44.58;16.08;97439.69;5043702;28;20082;-74
2021/06/06 10:24:57;;;;;;;3.78;3.47;;;;;;;42.71;17.44;97421.63;5055438;28;20027;-74
2021/06/06 10:27:29;;;;;;;6.68;3.58;;;;;;;41.76;18.56;97430.09;5055785;28;20039;-75
2021/06/06 10:30:04;;;;;;;18.38;3.92;;;;;;;42.20;18.19;97424.28;5051017;28;20029;-74
2021/06/06 10:32:37;;;;;;;5.25;3.55;;;;;;;42.27;18.11;97419.16;5052755;28;20037;-75
2021/06/06 10:35:02;;;;;;;7.20;3.40;;;;;;;41.96;19.65;97425.09;5035132;28;20105;-75
2021/06/06 10:37:30;;;;;;;7.70;3.53;;;;;;;43.33;17.52;97420.38;5034759;28;20107;-75
2021/06/06 10:40:03;;;;;;;11.65;4.40;;;;;;;41.75;19.42;97405.94;5018668;28;20166;-75
2021/06/06 10:42:31;;;;;;;3.83;3.42;;;;;;;41.44;19.91;97430.72;5034869;28;20035;-75
2021/06/06 10:45:17;;;;;;;6.85;3.30;;;;;;;42.52;17.06;97422.44;5065112;28;20032;-74
2021/06/06 10:48:07;;;;;;;69.97;5.15;;;;;;;43.00;17.61;97423.19;5054868;28;20470;-76
2021/06/06 10:50:34;;;;;;;6.50;3.30;;;;;;;43.60;17.12;97423.28;5072510;28;20024;-75
2021/06/06 10:53:31;;;;;;;13.25;4.00;;;;;;;44.01;17.45;97421.38;5055056;28;20078;-79
2021/06/06 10:56:11;;;;;;;7.90;3.15;;;;;;;43.97;16.80;97423.16;5054589;28;20020;-75
2021/06/06 10:58:56;;;;;;;4.70;2.92;;;;;;;43.72;17.15;97415.16;5072555;28;20048;-75
2021/06/06 11:01:29;;;;;;;4.57;3.17;;;;;;;43.63;16.63;97415.03;5047381;28;20021;-75
2021/06/06 11:04:28;;;;;;;3.88;3.08;;;;;;;43.26;17.80;97408.66;5034609;28;20527;-75
2021/06/06 11:07:07;;;;;;;4.05;2.90;;;;;;;43.59;18.49;97421.63;5002237;28;20145;-75
2021/06/06 11:09:35;;;;;;;10.80;3.45;;;;;;;43.79;17.13;97412.81;5052668;28;20100;-75
2021/06/06 11:12:12;;;;;;;4.63;3.25;;;;;;;43.70;17.77;97397.72;5054506;28;20111;-75
2021/06/06 11:14:49;;;;;;;5.38;3.10;;;;;;;44.64;16.96;97417.84;5054546;28;20491;-75
2021/06/06 11:17:36;;;;;;;5.13;3.47;;;;;;;43.77;17.77;97417.94;5048635;28;20508;-76
2021/06/06 11:20:16;;;;;;;9.07;4.32;;;;;;;43.75;17.94;97411.72;5034522;28;20021;-75
2021/06/06 11:22:47;;;;;;;9.20;3.63;;;;;;;44.65;16.36;97402.53;5051917;28;20024;-76
2021/06/06 11:25:27;;;;;;;;;;;;;;;44.58;17.16;97417.09;5048409;28;20325;-75
2021/06/06 11:28:05;;;;;;;9.88;4.53;;;;;;;45.28;15.91;97414.59;5035289;28;20023;-77
2021/06/06 11:30:32;;;;;;;3.40;3.05;;;;;;;42.86;17.12;97404.50;5034087;28;20032;-75
2021/06/06 11:33:04;;;;;;;14.77;3.60;;;;;;;42.00;18.80;97400.88;5051511;28;20029;-75
2021/06/06 11:35:42;;;;;;;10.38;3.45;;;;;;;43.11;17.81;97401.31;5017452;28;20040;-75
2021/06/06 11:38:13;;;;;;;16.38;7.10;;;;;;;42.76;18.55;97405.53;5034045;28;20088;-75